createdAt,value
2022-08-26T00:00:13.870Z,953.41
2022-08-26T00:01:13.864Z,953.43
2022-08-26T00:02:13.896Z,953.4
2022-08-26T00:03:13.854Z,953.41
2022-08-26T00:04:13.921Z,953.44
2022-08-26T00:05:13.844Z,953.45
2022-08-26T00:06:13.839Z,953.46
2022-08-26T00:07:13.832Z,953.44
2022-08-26T00:08:13.830Z,953.43
2022-08-26T00:09:13.823Z,953.42
2022-08-26T00:10:13.821Z,953.42
2022-08-26T00:11:13.813Z,953.39
2022-08-26T00:12:13.810Z,953.41
2022-08-26T00:13:13.803Z,953.36
2022-08-26T00:14:14.001Z,953.34
2022-08-26T00:15:13.792Z,953.37
2022-08-26T00:16:13.808Z,953.36
2022-08-26T00:17:13.782Z,953.34
2022-08-26T00:18:16.901Z,953.34
2022-08-26T00:19:13.773Z,953.34
2022-08-26T00:20:13.767Z,953.37
2022-08-26T00:21:13.762Z,953.35
2022-08-26T00:22:13.756Z,953.33
2022-08-26T00:23:13.752Z,953.35
2022-08-26T00:24:13.746Z,953.33
2022-08-26T00:25:13.742Z,953.34
2022-08-26T00:26:13.736Z,953.32
2022-08-26T00:27:13.731Z,953.31
2022-08-26T00:28:13.724Z,953.29
2022-08-26T00:29:13.719Z,953.23
2022-08-26T00:30:13.712Z,953.23
2022-08-26T00:31:13.709Z,953.23
2022-08-26T00:32:13.702Z,953.25
2022-08-26T00:33:13.712Z,953.25
2022-08-26T00:34:13.787Z,953.21
2022-08-26T00:35:13.687Z,953.2
2022-08-26T00:36:19.909Z,953.24
2022-08-26T00:37:16.197Z,953.21
2022-08-26T00:38:13.670Z,953.21
2022-08-26T00:39:13.666Z,953.2
2022-08-26T00:40:13.708Z,953.16
2022-08-26T00:41:13.654Z,953.14
2022-08-26T00:42:13.647Z,953.19
2022-08-26T00:43:13.644Z,953.19
2022-08-26T00:44:13.637Z,953.17
2022-08-26T00:45:13.633Z,953.2
2022-08-26T00:46:13.655Z,953.14
2022-08-26T00:47:13.620Z,953.17
2022-08-26T00:48:13.617Z,953.19
2022-08-26T00:49:13.613Z,953.2
2022-08-26T00:50:13.605Z,953.2
2022-08-26T00:51:13.600Z,953.18
2022-08-26T00:52:13.592Z,953.17
2022-08-26T00:53:13.588Z,953.17
2022-08-26T00:54:13.603Z,953.15
2022-08-26T00:55:16.339Z,953.15
2022-08-26T00:56:13.570Z,953.14
2022-08-26T00:57:16.193Z,953.16
2022-08-26T00:58:13.558Z,953.19
2022-08-26T00:59:13.558Z,953.17
2022-08-26T01:00:13.549Z,953.16
2022-08-26T01:01:13.587Z,953.16
2022-08-26T01:02:19.929Z,953.14
2022-08-26T01:03:13.533Z,953.12
2022-08-26T01:04:13.527Z,953.14
2022-08-26T01:05:13.524Z,953.16
2022-08-26T01:06:13.513Z,953.15
2022-08-26T01:07:13.613Z,953.14
2022-08-26T01:08:13.504Z,953.18
2022-08-26T01:09:13.507Z,953.14
2022-08-26T01:10:13.494Z,953.11
2022-08-26T01:11:13.487Z,953.12
2022-08-26T01:12:13.483Z,953.16
2022-08-26T01:13:13.476Z,953.19
2022-08-26T01:14:13.471Z,953.16
2022-08-26T01:15:13.463Z,953.15
2022-08-26T01:16:13.511Z,953.2
2022-08-26T01:17:13.451Z,953.19
2022-08-26T01:18:13.449Z,953.19
2022-08-26T01:19:13.443Z,953.14
2022-08-26T01:20:13.437Z,953.15
2022-08-26T01:21:13.429Z,953.15
2022-08-26T01:22:13.425Z,953.18
2022-08-26T01:23:13.432Z,953.19
2022-08-26T01:24:13.914Z,953.21
2022-08-26T01:25:13.406Z,953.17
2022-08-26T01:26:18.271Z,953.19
2022-08-26T01:27:13.396Z,953.21
2022-08-26T01:28:13.390Z,953.21
2022-08-26T01:29:13.384Z,953.25
2022-08-26T01:30:13.380Z,953.22
2022-08-26T01:31:14.296Z,953.2
2022-08-26T01:32:13.368Z,953.22
2022-08-26T01:33:13.360Z,953.2
2022-08-26T01:34:13.356Z,953.21
2022-08-26T01:35:13.348Z,953.18
2022-08-26T01:36:13.344Z,953.22
2022-08-26T01:37:13.724Z,953.19
2022-08-26T01:38:13.332Z,953.2
2022-08-26T01:39:13.325Z,953.19
2022-08-26T01:40:13.385Z,953.2
2022-08-26T01:41:16.231Z,953.19
2022-08-26T01:42:13.309Z,953.16
2022-08-26T01:43:13.302Z,953.16
2022-08-26T01:44:13.298Z,953.16
2022-08-26T01:45:13.292Z,953.18
2022-08-26T01:46:13.323Z,953.14
2022-08-26T01:47:13.280Z,953.13
2022-08-26T01:48:13.275Z,953.15
2022-08-26T01:49:13.267Z,953.13
2022-08-26T01:50:13.264Z,953.17
2022-08-26T01:51:13.255Z,953.15
2022-08-26T01:52:13.251Z,953.15
2022-08-26T01:53:13.243Z,953.14
2022-08-26T01:54:13.683Z,953.16
2022-08-26T01:55:13.282Z,953.13
2022-08-26T01:56:13.227Z,953.12
2022-08-26T01:57:13.219Z,953.1
2022-08-26T01:58:13.216Z,953.14
2022-08-26T01:59:13.209Z,953.16
2022-08-26T02:00:13.208Z,953.19
2022-08-26T02:01:13.241Z,953.16
2022-08-26T02:02:13.190Z,953.19
2022-08-26T02:03:13.189Z,953.17
2022-08-26T02:04:13.222Z,953.2
2022-08-26T02:05:13.174Z,953.23
2022-08-26T02:06:13.166Z,953.2
2022-08-26T02:07:13.162Z,953.2
2022-08-26T02:08:13.155Z,953.2
2022-08-26T02:09:13.150Z,953.2
2022-08-26T02:10:13.142Z,953.23
2022-08-26T02:11:13.189Z,953.19
2022-08-26T02:12:13.132Z,953.22
2022-08-26T02:13:13.128Z,953.17
2022-08-26T02:14:13.120Z,953.15
2022-08-26T02:15:13.117Z,953.22
2022-08-26T02:16:13.173Z,953.21
2022-08-26T02:17:13.103Z,953.2
2022-08-26T02:18:14.097Z,953.17
2022-08-26T02:19:16.940Z,953.18
2022-08-26T02:20:14.917Z,953.19
2022-08-26T02:21:13.080Z,953.18
2022-08-26T02:22:13.071Z,953.19
2022-08-26T02:23:13.066Z,953.18
2022-08-26T02:24:13.060Z,953.15
2022-08-26T02:25:13.055Z,953.17
2022-08-26T02:26:13.048Z,953.16
2022-08-26T02:27:13.042Z,953.16
2022-08-26T02:28:13.036Z,953.13
2022-08-26T02:29:13.031Z,953.1
2022-08-26T02:30:13.024Z,953.13
2022-08-26T02:31:13.059Z,953.14
2022-08-26T02:32:13.011Z,953.08
2022-08-26T02:33:13.006Z,953.1
2022-08-26T02:34:12.998Z,953.1
2022-08-26T02:35:12.994Z,953.11
2022-08-26T02:36:13.433Z,953.08
2022-08-26T02:37:12.984Z,953.11
2022-08-26T02:38:12.976Z,953.08
2022-08-26T02:39:15.033Z,953.09
2022-08-26T02:40:13.016Z,953.07
2022-08-26T02:41:12.957Z,953.07
2022-08-26T02:42:12.951Z,953.09
2022-08-26T02:43:12.948Z,953.08
2022-08-26T02:44:12.938Z,953.08
2022-08-26T02:45:12.933Z,953.13
2022-08-26T02:46:12.959Z,953.08
2022-08-26T02:47:12.982Z,953.13
2022-08-26T02:48:12.912Z,953.16
2022-08-26T02:49:12.909Z,953.1
2022-08-26T02:50:12.901Z,953.12
2022-08-26T02:51:12.901Z,953.09
2022-08-26T02:52:12.888Z,953.1
2022-08-26T02:53:12.884Z,953.06
2022-08-26T02:54:12.882Z,953.04
2022-08-26T02:55:12.871Z,953.04
2022-08-26T02:56:12.866Z,953.07
2022-08-26T02:57:12.859Z,953.04
2022-08-26T02:58:12.856Z,953.08
2022-08-26T02:59:12.845Z,953.06
2022-08-26T03:00:12.842Z,953.03
2022-08-26T03:01:12.889Z,953.02
2022-08-26T03:02:12.877Z,953.01
2022-08-26T03:03:12.820Z,952.99
2022-08-26T03:04:12.817Z,952.96
2022-08-26T03:05:12.810Z,952.92
2022-08-26T03:06:12.804Z,952.96
2022-08-26T03:07:12.796Z,952.94
2022-08-26T03:08:12.792Z,952.94
2022-08-26T03:09:14.035Z,952.93
2022-08-26T03:10:12.780Z,952.94
2022-08-26T03:11:12.773Z,952.91
2022-08-26T03:12:12.768Z,952.93
2022-08-26T03:13:12.759Z,952.91
2022-08-26T03:14:12.810Z,952.89
2022-08-26T03:15:16.603Z,952.89
2022-08-26T03:16:12.803Z,952.86
2022-08-26T03:17:12.734Z,952.85
2022-08-26T03:18:12.731Z,952.82
2022-08-26T03:19:12.723Z,952.85
2022-08-26T03:20:13.598Z,952.85
2022-08-26T03:21:12.711Z,952.82
2022-08-26T03:22:14.474Z,952.81
2022-08-26T03:23:12.699Z,952.82
2022-08-26T03:24:12.693Z,952.84
2022-08-26T03:25:12.691Z,952.82
2022-08-26T03:26:12.681Z,952.84
2022-08-26T03:27:12.681Z,952.82
2022-08-26T03:28:12.669Z,952.8
2022-08-26T03:29:12.660Z,952.81
2022-08-26T03:30:12.656Z,952.81
2022-08-26T03:31:12.662Z,952.81
2022-08-26T03:32:12.645Z,952.79
2022-08-26T03:33:12.635Z,952.8
2022-08-26T03:50:13.185Z,952.8
2022-08-26T03:51:13.177Z,952.75
2022-08-26T03:52:13.166Z,952.8
2022-08-26T03:53:13.454Z,952.76
2022-08-26T03:54:13.147Z,952.77
2022-08-26T03:55:13.140Z,952.8
2022-08-26T03:56:13.130Z,952.75
2022-08-26T03:57:13.121Z,952.75
2022-08-26T03:58:13.115Z,952.75
2022-08-26T03:59:13.108Z,952.76
2022-08-26T04:00:13.096Z,952.76
2022-08-26T04:01:13.102Z,952.75
2022-08-26T04:02:13.082Z,952.74
2022-08-26T04:03:16.926Z,952.77
2022-08-26T04:04:15.582Z,952.79
2022-08-26T04:05:13.061Z,952.75
2022-08-26T04:06:13.053Z,952.74
2022-08-26T04:07:13.048Z,952.78
2022-08-26T04:08:13.038Z,952.75
2022-08-26T04:09:13.031Z,952.73
2022-08-26T04:10:13.043Z,952.78
2022-08-26T04:11:13.018Z,952.75
2022-08-26T04:12:13.010Z,952.77
2022-08-26T04:13:13.004Z,952.73
2022-08-26T04:14:12.997Z,952.77
2022-08-26T04:15:12.989Z,952.8
2022-08-26T04:16:13.014Z,952.83
2022-08-26T04:17:12.977Z,952.79
2022-08-26T04:18:12.969Z,952.82
2022-08-26T04:19:12.962Z,952.76
2022-08-26T04:20:12.954Z,952.79
2022-08-26T04:21:12.951Z,952.8
2022-08-26T04:22:12.941Z,952.79
2022-08-26T04:23:12.934Z,952.8
2022-08-26T04:24:12.928Z,952.82
2022-08-26T04:25:12.922Z,952.8
2022-08-26T04:26:12.914Z,952.81
2022-08-26T04:27:12.909Z,952.8
2022-08-26T04:28:12.901Z,952.81
2022-08-26T04:29:12.897Z,952.81
2022-08-26T04:30:12.887Z,952.77
2022-08-26T04:31:12.919Z,952.77
2022-08-26T04:32:12.875Z,952.78
2022-08-26T04:33:13.440Z,952.78
2022-08-26T04:34:14.024Z,952.76
2022-08-26T04:35:12.858Z,952.77
2022-08-26T04:36:12.854Z,952.76
2022-08-26T04:37:12.845Z,952.74
2022-08-26T04:38:12.859Z,952.73
2022-08-26T04:39:12.833Z,952.78
2022-08-26T04:40:12.881Z,952.76
2022-08-26T04:41:15.182Z,952.74
2022-08-26T04:42:12.853Z,952.75
2022-08-26T04:43:12.807Z,952.73
2022-08-26T04:44:12.802Z,952.75
2022-08-26T04:45:12.797Z,952.79
2022-08-26T04:46:13.176Z,952.77
2022-08-26T04:47:12.781Z,952.79
2022-08-26T04:48:12.776Z,952.75
2022-08-26T04:49:12.770Z,952.76
2022-08-26T04:50:12.766Z,952.77
2022-08-26T04:51:12.757Z,952.78
2022-08-26T04:52:12.755Z,952.72
2022-08-26T04:53:12.744Z,952.79
2022-08-26T04:54:12.740Z,952.78
2022-08-26T04:55:12.733Z,952.73
2022-08-26T04:56:12.727Z,952.76
2022-08-26T04:57:12.725Z,952.75
2022-08-26T04:58:12.717Z,952.8
2022-08-26T04:59:14.908Z,952.77
2022-08-26T05:00:12.704Z,952.8
2022-08-26T05:01:12.716Z,952.78
2022-08-26T05:02:12.692Z,952.79
2022-08-26T05:03:12.684Z,952.75
2022-08-26T05:04:12.702Z,952.76
2022-08-26T05:05:12.671Z,952.75
2022-08-26T05:06:12.666Z,952.77
2022-08-26T05:07:12.660Z,952.75
2022-08-26T05:08:12.655Z,952.79
2022-08-26T05:09:12.648Z,952.79
2022-08-26T05:10:12.642Z,952.8
2022-08-26T05:11:12.638Z,952.81
2022-08-26T05:12:12.633Z,952.82
2022-08-26T05:13:14.292Z,952.82
2022-08-26T05:14:12.619Z,952.84
2022-08-26T05:15:12.612Z,952.84
2022-08-26T05:16:12.625Z,952.8
2022-08-26T05:17:14.825Z,952.86
2022-08-26T05:18:12.596Z,952.79
2022-08-26T05:19:12.590Z,952.82
2022-08-26T05:20:12.587Z,952.85
2022-08-26T05:21:12.578Z,952.86
2022-08-26T05:22:13.057Z,952.85
2022-08-26T05:23:12.566Z,952.86
2022-08-26T05:24:12.562Z,952.89
2022-08-26T05:25:12.557Z,952.88
2022-08-26T05:26:12.551Z,952.89
2022-08-26T05:27:12.620Z,952.88
2022-08-26T05:28:12.540Z,952.89
2022-08-26T05:29:12.533Z,952.89
2022-08-26T05:30:12.530Z,952.88
2022-08-26T05:31:12.558Z,952.88
2022-08-26T05:32:12.516Z,952.87
2022-08-26T05:33:12.512Z,952.89
2022-08-26T05:34:12.505Z,952.85
2022-08-26T05:35:12.500Z,952.84
2022-08-26T05:36:12.493Z,952.82
2022-08-26T05:37:12.855Z,952.86
2022-08-26T05:38:12.977Z,952.85
2022-08-26T05:39:12.478Z,952.82
2022-08-26T05:40:12.520Z,952.82
2022-08-26T05:41:12.467Z,952.82
2022-08-26T05:42:12.461Z,952.86
2022-08-26T05:43:12.456Z,952.84
2022-08-26T05:44:12.450Z,952.85
2022-08-26T05:45:12.447Z,952.83
2022-08-26T05:46:12.523Z,952.83
2022-08-26T05:47:12.435Z,952.83
2022-08-26T05:48:12.429Z,952.89
2022-08-26T05:49:13.029Z,952.82
2022-08-26T05:50:12.418Z,952.84
2022-08-26T05:51:12.415Z,952.83
2022-08-26T05:52:12.409Z,952.86
2022-08-26T05:53:12.410Z,952.87
2022-08-26T05:54:12.397Z,952.87
2022-08-26T05:55:12.393Z,952.85
2022-08-26T05:56:12.395Z,952.83
2022-08-26T05:57:12.384Z,952.84
2022-08-26T05:58:12.377Z,952.89
2022-08-26T05:59:14.183Z,952.86
2022-08-26T06:00:12.376Z,952.9
2022-08-26T06:01:12.401Z,952.89
2022-08-26T06:02:12.357Z,952.86
2022-08-26T06:03:12.383Z,952.9
2022-08-26T06:04:12.349Z,952.9
2022-08-26T06:05:12.343Z,952.91
2022-08-26T06:06:12.337Z,952.88
2022-08-26T06:07:13.554Z,952.89
2022-08-26T06:08:12.327Z,952.89
2022-08-26T06:09:12.325Z,952.88
2022-08-26T06:10:31.369Z,952.91
2022-08-26T06:11:18.732Z,952.88
2022-08-26T06:12:12.307Z,952.89
2022-08-26T06:13:12.386Z,952.89
2022-08-26T06:14:12.299Z,952.92
2022-08-26T06:15:12.297Z,952.89
2022-08-26T06:16:12.355Z,952.91
2022-08-26T06:17:12.291Z,952.94
2022-08-26T06:18:12.286Z,952.94
2022-08-26T06:19:12.278Z,952.94
2022-08-26T06:20:12.271Z,952.92
2022-08-26T06:21:12.268Z,952.91
2022-08-26T06:22:12.262Z,952.93
2022-08-26T06:23:12.259Z,952.9
2022-08-26T06:24:12.254Z,952.92
2022-08-26T06:25:12.250Z,952.93
2022-08-26T06:26:12.246Z,952.9
2022-08-26T06:27:12.240Z,952.96
2022-08-26T06:28:12.238Z,952.97
2022-08-26T06:29:12.232Z,952.98
2022-08-26T06:30:12.227Z,952.99
2022-08-26T06:31:12.303Z,953.01
2022-08-26T06:32:12.220Z,953.04
2022-08-26T06:33:12.214Z,952.96
2022-08-26T06:34:12.211Z,953
2022-08-26T06:35:12.443Z,952.99
2022-08-26T06:36:12.203Z,952.99
2022-08-26T06:37:12.195Z,953
2022-08-26T06:38:12.193Z,953.02
2022-08-26T06:39:12.187Z,953.01
2022-08-26T06:40:12.214Z,952.99
2022-08-26T06:41:12.180Z,953.01
2022-08-26T06:42:12.178Z,952.99
2022-08-26T06:43:12.173Z,952.93
2022-08-26T06:44:12.170Z,952.96
2022-08-26T06:45:12.164Z,952.93
2022-08-26T06:46:12.208Z,952.96
2022-08-26T06:47:12.156Z,952.94
2022-08-26T06:48:12.254Z,952.95
2022-08-26T06:49:12.148Z,952.93
2022-08-26T06:50:12.146Z,952.92
2022-08-26T06:51:12.142Z,952.93
2022-08-26T06:52:12.139Z,952.94
2022-08-26T06:53:12.135Z,952.94
2022-08-26T06:54:12.132Z,952.9
2022-08-26T06:55:12.129Z,952.9
2022-08-26T06:56:12.125Z,952.9
2022-08-26T06:57:12.121Z,952.94
2022-08-26T06:58:12.123Z,952.92
2022-08-26T06:59:12.121Z,952.87
2022-08-26T07:00:12.114Z,952.89
2022-08-26T07:01:12.155Z,952.9
2022-08-26T07:02:13.460Z,952.88
2022-08-26T07:03:12.148Z,952.88
2022-08-26T07:04:12.104Z,952.88
2022-08-26T07:05:12.102Z,952.88
2022-08-26T07:06:12.100Z,952.92
2022-08-26T07:07:12.095Z,952.96
2022-08-26T07:08:12.095Z,952.99
2022-08-26T07:09:12.092Z,952.97
2022-08-26T07:10:12.090Z,952.94
2022-08-26T07:11:12.087Z,952.95
2022-08-26T07:12:12.088Z,952.96
2022-08-26T07:13:12.086Z,952.99
2022-08-26T07:14:12.086Z,952.98
2022-08-26T07:15:12.084Z,952.93
2022-08-26T07:16:12.192Z,952.94
2022-08-26T07:17:13.895Z,952.96
2022-08-26T07:18:12.082Z,952.91
2022-08-26T07:19:12.083Z,952.87
2022-08-26T07:20:12.082Z,952.92
2022-08-26T07:21:12.082Z,952.93
2022-08-26T07:22:12.083Z,952.9
2022-08-26T07:23:12.085Z,952.87
2022-08-26T07:24:12.085Z,952.85
2022-08-26T07:25:12.086Z,952.82
2022-08-26T07:26:12.086Z,952.88
2022-08-26T07:27:12.094Z,952.84
2022-08-26T07:28:12.088Z,952.82
2022-08-26T07:29:12.089Z,952.82
2022-08-26T07:30:12.088Z,952.8
2022-08-26T07:31:12.133Z,952.83
2022-08-26T07:32:12.088Z,952.84
2022-08-26T07:33:12.091Z,952.84
2022-08-26T07:34:12.090Z,952.84
2022-08-26T07:35:12.097Z,952.85
2022-08-26T07:36:12.090Z,952.86
2022-08-26T07:37:12.095Z,952.85
2022-08-26T07:38:12.094Z,952.84
2022-08-26T07:39:12.095Z,952.9
2022-08-26T07:40:12.148Z,952.89
2022-08-26T07:41:12.095Z,952.88
2022-08-26T07:42:12.094Z,952.89
2022-08-26T07:43:12.097Z,952.93
2022-08-26T07:44:12.094Z,952.91
2022-08-26T07:45:12.095Z,952.93
2022-08-26T07:46:15.912Z,952.93
2022-08-26T07:47:24.302Z,952.91
2022-08-26T07:48:12.095Z,952.94
2022-08-26T07:49:12.158Z,952.92
2022-08-26T07:50:12.096Z,952.94
2022-08-26T07:51:12.097Z,952.93
2022-08-26T07:52:12.096Z,952.91
2022-08-26T07:53:12.098Z,952.95
2022-08-26T07:54:12.095Z,952.93
2022-08-26T07:55:12.098Z,952.94
2022-08-26T07:56:12.096Z,952.95
2022-08-26T07:57:12.098Z,952.93
2022-08-26T07:58:12.097Z,953.01
2022-08-26T07:59:13.868Z,952.97
2022-08-26T08:00:12.098Z,952.98
2022-08-26T08:01:12.138Z,952.95
2022-08-26T08:02:12.197Z,952.95
2022-08-26T08:03:12.100Z,952.96
2022-08-26T08:04:12.098Z,952.94
2022-08-26T08:05:12.162Z,952.96
2022-08-26T08:06:12.103Z,952.97
2022-08-26T08:07:12.113Z,952.95
2022-08-26T08:08:27.437Z,952.93
2022-08-26T08:09:12.101Z,952.96
2022-08-26T08:10:12.102Z,952.95
2022-08-26T08:11:12.108Z,952.96
2022-08-26T08:12:14.081Z,952.98
2022-08-26T08:13:12.103Z,952.96
2022-08-26T08:14:12.105Z,952.96
2022-08-26T08:15:12.105Z,952.98
2022-08-26T08:16:12.413Z,952.98
2022-08-26T08:18:15.705Z,953
2022-08-26T08:19:12.106Z,952.99
2022-08-26T08:20:12.108Z,952.98
2022-08-26T08:21:21.008Z,952.97
2022-08-26T08:22:13.337Z,952.99
2022-08-26T08:23:12.109Z,952.96
2022-08-26T08:24:12.111Z,952.93
2022-08-26T08:25:12.109Z,952.94
2022-08-26T08:26:12.111Z,952.98
2022-08-26T08:27:12.117Z,952.96
2022-08-26T08:28:12.111Z,952.94
2022-08-26T08:29:12.111Z,952.9
2022-08-26T08:30:13.737Z,952.85
2022-08-26T08:31:12.287Z,952.86
2022-08-26T08:32:12.114Z,952.86
2022-08-26T08:33:12.112Z,952.8
2022-08-26T08:34:12.115Z,952.8
2022-08-26T08:35:12.116Z,952.8
2022-08-26T08:36:12.119Z,952.76
2022-08-26T08:37:12.118Z,952.75
2022-08-26T08:38:12.118Z,952.76
2022-08-26T08:39:12.118Z,952.69
2022-08-26T08:40:12.176Z,952.69
2022-08-26T08:41:12.121Z,952.68
2022-08-26T08:42:12.121Z,952.66
2022-08-26T08:43:12.123Z,952.69
2022-08-26T08:44:12.142Z,952.67
2022-08-26T08:45:12.123Z,952.65
2022-08-26T08:46:12.211Z,952.64
2022-08-26T08:47:12.123Z,952.65
2022-08-26T08:48:12.149Z,952.66
2022-08-26T08:49:12.123Z,952.64
2022-08-26T08:50:12.125Z,952.61
2022-08-26T08:51:12.126Z,952.64
2022-08-26T08:52:12.130Z,952.63
2022-08-26T08:53:12.126Z,952.6
2022-08-26T08:54:12.129Z,952.56
2022-08-26T08:55:14.777Z,952.57
2022-08-26T08:56:12.129Z,952.54
2022-08-26T08:57:12.140Z,952.51
2022-08-26T08:58:12.224Z,952.48
2022-08-26T08:59:12.133Z,952.5
2022-08-26T09:00:12.132Z,952.5
2022-08-26T09:01:12.180Z,952.47
2022-08-26T09:02:12.165Z,952.48
2022-08-26T09:03:12.137Z,952.48
2022-08-26T09:04:12.136Z,952.48
2022-08-26T09:05:14.976Z,952.47
2022-08-26T09:06:12.140Z,952.45
2022-08-26T09:07:12.141Z,952.44
2022-08-26T09:08:12.241Z,952.43
2022-08-26T09:09:12.143Z,952.41
2022-08-26T09:10:12.144Z,952.39
2022-08-26T09:11:12.146Z,952.39
2022-08-26T09:12:12.146Z,952.39
2022-08-26T09:13:13.759Z,952.4
2022-08-26T09:14:12.150Z,952.36
2022-08-26T09:15:12.151Z,952.37
2022-08-26T09:16:12.155Z,952.35
2022-08-26T09:17:12.237Z,952.39
2022-08-26T09:18:12.152Z,952.41
2022-08-26T09:19:12.156Z,952.41
2022-08-26T09:20:12.155Z,952.41
2022-08-26T09:21:12.160Z,952.47
2022-08-26T09:22:12.185Z,952.43
2022-08-26T09:23:12.160Z,952.44
2022-08-26T09:24:13.948Z,952.44
2022-08-26T09:25:12.161Z,952.49
2022-08-26T09:26:12.167Z,952.48
2022-08-26T09:27:12.163Z,952.45
2022-08-26T09:28:12.161Z,952.52
2022-08-26T09:29:12.185Z,952.48
2022-08-26T09:30:12.165Z,952.45
2022-08-26T09:31:12.215Z,952.47
2022-08-26T09:32:12.164Z,952.44
2022-08-26T09:33:12.458Z,952.41
2022-08-26T09:34:12.166Z,952.43
2022-08-26T09:35:12.165Z,952.42
2022-08-26T09:36:12.165Z,952.44
2022-08-26T09:37:12.166Z,952.46
2022-08-26T09:38:12.266Z,952.5
2022-08-26T09:39:12.166Z,952.47
2022-08-26T09:40:12.250Z,952.49
2022-08-26T09:41:12.168Z,952.47
2022-08-26T09:42:12.164Z,952.46
2022-08-26T09:43:12.168Z,952.48
2022-08-26T09:44:14.395Z,952.47
2022-08-26T09:45:12.166Z,952.45
2022-08-26T09:46:12.201Z,952.44
2022-08-26T09:47:12.166Z,952.49
2022-08-26T09:48:12.164Z,952.45
2022-08-26T09:49:12.166Z,952.45
2022-08-26T09:50:12.522Z,952.44
2022-08-26T09:51:12.163Z,952.38
2022-08-26T09:52:12.165Z,952.38
2022-08-26T09:53:12.754Z,952.32
2022-08-26T09:54:12.166Z,952.35
2022-08-26T09:55:12.163Z,952.32
2022-08-26T09:56:12.166Z,952.35
2022-08-26T09:57:12.165Z,952.36
2022-08-26T09:58:12.281Z,952.35
2022-08-26T09:59:12.163Z,952.3
2022-08-26T10:00:12.165Z,952.33
2022-08-26T10:01:12.223Z,952.3
2022-08-26T10:02:12.331Z,952.26
2022-08-26T10:03:12.412Z,952.26
2022-08-26T10:04:12.221Z,952.22
2022-08-26T10:05:12.165Z,952.22
2022-08-26T10:06:12.164Z,952.2
2022-08-26T10:07:12.162Z,952.17
2022-08-26T10:08:12.165Z,952.18
2022-08-26T10:09:12.163Z,952.14
2022-08-26T10:10:12.165Z,952.12
2022-08-26T10:11:12.165Z,952.09
2022-08-26T10:12:12.165Z,952.08
2022-08-26T10:13:12.165Z,952.05
2022-08-26T10:14:12.165Z,952.01
2022-08-26T10:15:12.164Z,952.03
2022-08-26T10:16:12.187Z,951.99
2022-08-26T10:17:12.164Z,952.01
2022-08-26T10:18:12.166Z,951.97
2022-08-26T10:19:12.166Z,951.97
2022-08-26T10:20:13.632Z,951.98
2022-08-26T10:21:12.166Z,951.94
2022-08-26T10:22:12.168Z,951.96
2022-08-26T10:23:12.169Z,951.96
2022-08-26T10:24:12.168Z,951.91
2022-08-26T10:25:12.169Z,951.89
2022-08-26T10:26:12.171Z,951.9
2022-08-26T10:27:12.171Z,951.92
2022-08-26T10:28:12.172Z,951.9
2022-08-26T10:29:12.217Z,951.84
2022-08-26T10:30:12.192Z,951.87
2022-08-26T10:31:12.174Z,951.87
2022-08-26T10:32:13.788Z,951.83
2022-08-26T10:33:12.177Z,951.8
2022-08-26T10:34:12.421Z,951.82
2022-08-26T10:35:12.180Z,951.84
2022-08-26T10:36:12.245Z,951.85
2022-08-26T10:37:15.169Z,951.86
2022-08-26T10:38:12.186Z,951.84
2022-08-26T10:39:12.223Z,951.81
2022-08-26T10:40:12.240Z,951.76
2022-08-26T10:41:13.086Z,951.75
2022-08-26T10:42:12.191Z,951.77
2022-08-26T10:43:12.195Z,951.77
2022-08-26T10:44:12.195Z,951.75
2022-08-26T10:45:15.207Z,951.73
2022-08-26T10:46:12.227Z,951.71
2022-08-26T10:47:12.201Z,951.71
2022-08-26T10:48:12.203Z,951.68
2022-08-26T10:49:12.231Z,951.63
2022-08-26T10:50:12.829Z,951.67
2022-08-26T10:51:12.209Z,951.62
2022-08-26T10:52:16.393Z,951.65
2022-08-26T10:53:12.213Z,951.64
2022-08-26T10:54:12.213Z,951.62
2022-08-26T10:55:12.216Z,951.61
2022-08-26T10:56:15.634Z,951.56
2022-08-26T10:57:12.219Z,951.62
2022-08-26T10:58:12.532Z,951.64
2022-08-26T10:59:12.675Z,951.63
2022-08-26T11:00:12.224Z,951.59
2022-08-26T11:01:12.298Z,951.6
2022-08-26T11:02:12.228Z,951.58
2022-08-26T11:03:21.629Z,951.58
2022-08-26T11:04:12.322Z,951.59
2022-08-26T11:05:12.234Z,951.6
2022-08-26T11:06:12.235Z,951.61
2022-08-26T11:07:12.239Z,951.62
2022-08-26T11:08:12.238Z,951.64
2022-08-26T11:09:12.241Z,951.63
2022-08-26T11:10:12.243Z,951.63
2022-08-26T11:11:12.244Z,951.66
2022-08-26T11:12:12.244Z,951.69
2022-08-26T11:13:12.246Z,951.67
2022-08-26T11:14:12.248Z,951.64
2022-08-26T11:15:12.250Z,951.62
2022-08-26T11:16:12.277Z,951.64
2022-08-26T11:17:12.255Z,951.56
2022-08-26T11:18:12.253Z,951.52
2022-08-26T11:19:12.256Z,951.54
2022-08-26T11:20:13.282Z,951.47
2022-08-26T11:21:12.261Z,951.46
2022-08-26T11:22:12.260Z,951.45
2022-08-26T11:23:12.261Z,951.46
2022-08-26T11:24:12.263Z,951.46
2022-08-26T11:25:12.265Z,951.45
2022-08-26T11:26:12.265Z,951.46
2022-08-26T11:27:12.269Z,951.45
2022-08-26T11:28:12.268Z,951.43
2022-08-26T11:29:13.479Z,951.44
2022-08-26T11:30:12.271Z,951.42
2022-08-26T11:31:12.296Z,951.44
2022-08-26T11:32:12.276Z,951.45
2022-08-26T11:33:12.275Z,951.43
2022-08-26T11:34:12.279Z,951.43
2022-08-26T11:35:12.278Z,951.4
2022-08-26T11:36:12.591Z,951.44
2022-08-26T11:37:12.316Z,951.41
2022-08-26T11:38:12.283Z,951.41
2022-08-26T11:39:12.282Z,951.43
2022-08-26T11:40:12.351Z,951.4
2022-08-26T11:41:12.285Z,951.43
2022-08-26T11:42:12.290Z,951.39
2022-08-26T11:43:12.287Z,951.39
2022-08-26T11:44:12.290Z,951.41
2022-08-26T11:45:12.289Z,951.37
2022-08-26T11:46:12.375Z,951.38
2022-08-26T11:47:12.293Z,951.4
2022-08-26T11:48:12.294Z,951.41
2022-08-26T11:49:12.294Z,951.39
2022-08-26T11:50:12.345Z,951.42
2022-08-26T11:51:12.296Z,951.42
2022-08-26T11:52:12.299Z,951.45
2022-08-26T11:53:12.298Z,951.51
2022-08-26T11:54:12.301Z,951.55
2022-08-26T11:55:12.300Z,951.57
2022-08-26T11:56:12.302Z,951.6
2022-08-26T11:57:12.302Z,951.65
2022-08-26T11:58:12.305Z,951.68
2022-08-26T11:59:12.304Z,951.67
2022-08-26T12:00:13.103Z,951.69
2022-08-26T12:01:12.304Z,951.68
2022-08-26T12:02:12.307Z,951.67
2022-08-26T12:03:12.498Z,951.72
2022-08-26T12:04:12.416Z,951.69
2022-08-26T12:05:12.306Z,951.67
2022-08-26T12:06:12.307Z,951.68
2022-08-26T12:07:12.305Z,951.67
2022-08-26T12:08:12.307Z,951.66
2022-08-26T12:09:12.306Z,951.65
2022-08-26T12:10:12.304Z,951.68
2022-08-26T12:11:12.304Z,951.63
2022-08-26T12:12:12.304Z,951.64
2022-08-26T12:13:12.304Z,951.64
2022-08-26T12:14:12.303Z,951.58
2022-08-26T12:15:12.301Z,951.6
2022-08-26T12:16:12.322Z,951.54
2022-08-26T12:17:12.300Z,951.53
2022-08-26T12:18:12.299Z,951.48
2022-08-26T12:19:12.298Z,951.51
2022-08-26T12:20:12.298Z,951.56
2022-08-26T12:21:12.297Z,951.6
2022-08-26T12:22:12.294Z,951.62
2022-08-26T12:23:12.295Z,951.61
2022-08-26T12:24:12.293Z,951.59
2022-08-26T12:25:12.292Z,951.63
2022-08-26T12:26:12.290Z,951.63
2022-08-26T12:27:12.290Z,951.63
2022-08-26T12:28:12.287Z,951.65
2022-08-26T12:29:19.702Z,951.61
2022-08-26T12:30:13.869Z,951.58
2022-08-26T12:31:12.333Z,951.58
2022-08-26T12:32:12.281Z,951.54
2022-08-26T12:33:19.353Z,951.49
2022-08-26T12:34:17.772Z,951.45
2022-08-26T12:35:12.281Z,951.48
2022-08-26T12:36:12.274Z,951.42
2022-08-26T12:37:12.280Z,951.41
2022-08-26T12:38:12.273Z,951.36
2022-08-26T12:39:12.272Z,951.37
2022-08-26T12:40:12.345Z,951.31
2022-08-26T12:41:12.272Z,951.27
2022-08-26T12:42:12.267Z,951.23
2022-08-26T12:43:12.267Z,951.23
2022-08-26T12:44:12.265Z,951.21
2022-08-26T12:45:12.267Z,951.21
2022-08-26T12:46:12.362Z,951.2
2022-08-26T12:47:12.263Z,951.15
2022-08-26T12:48:12.259Z,951.18